Time;durP1;ratioP1;P1;durP2;ratioP2;P2;SDS_P1;SDS_P2;PMS_P1;PMS_P2;Temp;Humidity;BMP_temperature;BMP_pressure;BME280_temperature;BME280_humidity;BME280_pressure;Samples;Min_cycle;Max_cycle;Signal;HPM_P1;HPM_P2
2021/11/23 00:01:07;;;;;;;12.70;5.65;;;;;;;11.92;66.26;101255.14;1883932;76;21046;-62
2021/11/23 00:03:36;;;;;;;12.98;6.45;;;;;;;11.94;66.08;101281.86;1883945;76;21037;-64
2021/11/23 00:06:04;;;;;;;7.90;4.65;;;;;;;11.96;65.96;101287.95;1883906;76;21053;-64
2021/11/23 00:08:33;;;;;;;11.60;6.78;;;;;;;11.98;65.90;101288.75;1883920;76;21496;-63
2021/11/23 00:11:03;;;;;;;10.05;5.58;;;;;;;12.01;65.84;101216.97;1883912;76;21138;-64
2021/11/23 00:13:31;;;;;;;12.20;7.17;;;;;;;12.04;65.71;101273.61;1883945;75;21069;-63
2021/11/23 00:16:01;;;;;;;12.55;4.95;;;;;;;12.04;65.67;101268.34;1883880;75;21119;-63
2021/11/23 00:18:30;;;;;;;10.32;5.05;;;;;;;12.07;65.68;101282.75;1883977;76;21636;-63
2021/11/23 00:21:01;;;;;;;8.68;4.53;;;;;;;12.06;65.47;101271.34;1883802;76;21127;-64
2021/11/23 00:23:30;;;;;;;12.15;4.92;;;;;;;12.09;65.37;101298.06;1883934;75;21562;-64
2021/11/23 00:25:59;;;;;;;9.63;4.85;;;;;;;12.06;65.53;101258.58;1883942;76;21046;-64
2021/11/23 00:28:28;;;;;;;9.55;5.42;;;;;;;12.05;65.47;101273.56;1883853;76;21581;-65
2021/11/23 00:30:59;;;;;;;14.58;5.50;;;;;;;12.06;65.56;101281.02;1883933;76;21137;-64
2021/11/23 00:33:32;;;;;;;13.75;6.28;;;;;;;12.03;65.59;101274.08;1883941;76;21115;-63
2021/11/23 00:36:01;;;;;;;10.50;5.30;;;;;;;12.02;65.63;101263.58;1883878;76;21115;-64
2021/11/23 00:38:30;;;;;;;10.08;4.50;;;;;;;11.97;65.68;101268.57;1883850;76;21546;-64
2021/11/23 00:40:58;;;;;;;10.40;5.58;;;;;;;11.92;65.76;101269.19;1883777;75;21045;-65
2021/11/23 00:43:29;;;;;;;12.85;6.00;;;;;;;11.90;65.83;101268.38;1883869;76;21127;-64
2021/11/23 00:45:58;;;;;;;12.03;5.20;;;;;;;11.89;65.82;101266.62;1883827;75;21077;-63
2021/11/23 00:48:27;;;;;;;12.47;5.62;;;;;;;11.90;65.73;101275.45;1883923;76;21081;-64
2021/11/23 00:50:55;;;;;;;9.68;5.78;;;;;;;11.89;65.67;101263.13;1883924;76;21018;-63
2021/11/23 00:53:25;;;;;;;13.58;5.40;;;;;;;11.92;65.56;101271.83;1883909;76;21057;-63
2021/11/23 00:55:56;;;;;;;10.63;4.75;;;;;;;11.98;65.39;101271.59;1883844;76;21112;-63
2021/11/23 00:58:25;;;;;;;7.55;4.40;;;;;;;12.01;65.18;101268.00;1884018;76;21042;-64
2021/11/23 01:00:54;;;;;;;8.43;4.62;;;;;;;12.08;64.94;101263.34;1884024;76;21038;-65
2021/11/23 01:03:23;;;;;;;12.53;5.90;;;;;;;12.11;64.86;101271.16;1883854;76;21488;-64
2021/11/23 01:05:55;;;;;;;9.33;4.08;;;;;;;12.11;64.80;101263.23;1883978;76;21018;-64
2021/11/23 01:08:27;;;;;;;8.58;4.33;;;;;;;12.12;64.83;101267.61;1883783;75;21053;-64
2021/11/23 01:10:56;;;;;;;8.20;4.00;;;;;;;12.11;64.86;101261.91;1883951;76;21045;-64
2021/11/23 01:16:16;;;;;;;8.80;4.97;;;;;;;12.18;64.64;101264.73;1929353;74;21523;-64
2021/11/23 01:18:46;;;;;;;9.98;4.28;;;;;;;12.21;64.48;101272.55;1929359;74;21044;-65
2021/11/23 01:21:15;;;;;;;9.58;5.78;;;;;;;12.26;64.45;101265.76;1929456;74;21040;-64
2021/11/23 01:23:44;;;;;;;6.03;3.08;;;;;;;12.28;64.42;101252.92;1929502;74;21036;-65
2021/11/23 01:26:14;;;;;;;8.33;4.10;;;;;;;12.33;64.54;101246.98;1929367;74;21483;-64
2021/11/23 01:28:43;;;;;;;8.10;3.55;;;;;;;12.34;64.67;101260.59;1929404;74;21040;-64
2021/11/23 01:31:12;;;;;;;7.22;4.17;;;;;;;12.29;64.78;101262.55;1929249;74;21444;-65
2021/11/23 01:33:41;;;;;;;9.58;4.10;;;;;;;12.28;65.26;101272.72;1929321;74;21455;-65
2021/11/23 01:36:12;;;;;;;7.55;2.95;;;;;;;12.28;65.35;101258.64;1929299;74;21542;-65
2021/11/23 01:38:40;;;;;;;8.18;3.87;;;;;;;12.27;65.42;101268.81;1929427;74;21065;-65
2021/11/23 01:41:10;;;;;;;5.87;2.95;;;;;;;12.24;65.63;101265.81;1929316;74;21120;-64
2021/11/23 01:43:39;;;;;;;9.70;5.17;;;;;;;12.25;65.94;101264.05;1929226;74;21173;-64
2021/11/23 01:46:09;;;;;;;9.58;3.98;;;;;;;12.23;66.22;101266.75;1929547;74;21439;-64
2021/11/23 01:48:38;;;;;;;8.53;5.08;;;;;;;12.23;66.46;101256.19;1929306;74;21012;-64
2021/11/23 01:51:07;;;;;;;10.50;6.08;;;;;;;12.24;66.91;101259.21;1929439;74;21040;-64
2021/11/23 01:53:36;;;;;;;9.28;4.80;;;;;;;12.22;67.05;101261.05;1929351;74;21052;-64
2021/11/23 01:56:06;;;;;;;7.30;4.03;;;;;;;12.21;66.95;101266.38;1929292;74;21016;-65
2021/11/23 01:58:35;;;;;;;10.10;4.58;;;;;;;12.19;67.35;101257.66;1929594;74;21502;-64
2021/11/23 02:01:06;;;;;;;12.30;5.40;;;;;;;12.20;67.42;101266.85;1929469;74;21138;-64
2021/11/23 02:03:40;;;;;;;12.82;6.35;;;;;;;12.22;67.48;101257.09;1929450;74;21149;-64
2021/11/23 02:06:09;;;;;;;10.15;6.12;;;;;;;12.21;67.59;101269.91;1929594;74;21036;-64
2021/11/23 02:08:38;;;;;;;11.18;5.70;;;;;;;12.22;67.68;101277.36;1929348;74;21122;-65
2021/11/23 02:11:07;;;;;;;10.68;5.85;;;;;;;12.22;67.83;101266.80;1929445;74;21025;-64
2021/11/23 02:13:38;;;;;;;11.05;6.28;;;;;;;12.21;67.86;101246.14;1929449;74;21068;-64
2021/11/23 02:16:06;;;;;;;11.30;4.97;;;;;;;12.20;68.03;101247.52;1929468;74;21068;-64
2021/11/23 02:18:36;;;;;;;14.55;5.97;;;;;;;12.17;67.99;101253.75;1929429;74;21017;-65
2021/11/23 02:21:05;;;;;;;9.08;4.58;;;;;;;12.14;68.17;101263.98;1929448;74;21036;-65
2021/11/23 02:23:34;;;;;;;10.32;6.58;;;;;;;12.14;68.37;101253.89;1929426;74;21546;-65
2021/11/23 02:26:04;;;;;;;13.10;7.25;;;;;;;12.13;68.40;101248.20;1929456;74;21451;-64
2021/11/23 02:28:33;;;;;;;13.38;8.00;;;;;;;12.14;68.88;101256.53;1929502;74;21483;-64
2021/11/23 02:31:02;;;;;;;9.68;4.70;;;;;;;12.15;68.91;101260.44;1929439;74;21012;-64
2021/11/23 02:33:31;;;;;;;7.50;4.95;;;;;;;12.22;69.06;101261.05;1929463;74;21507;-64
2021/11/23 02:36:03;;;;;;;12.70;5.80;;;;;;;12.21;69.04;101270.34;1929407;74;21071;-65
2021/11/23 02:38:33;;;;;;;9.00;5.12;;;;;;;12.22;69.11;101279.53;1929533;74;21024;-64
2021/11/23 02:41:05;;;;;;;10.45;5.30;;;;;;;12.22;69.05;101261.52;1929185;74;21091;-64
2021/11/23 02:43:34;;;;;;;8.68;4.33;;;;;;;12.19;69.27;101262.95;1929720;74;21012;-64
2021/11/23 02:46:03;;;;;;;10.35;5.72;;;;;;;12.17;69.32;101257.72;1929435;74;21110;-64
2021/11/23 02:48:32;;;;;;;13.40;6.78;;;;;;;12.15;69.58;101258.23;1929327;74;21052;-64
2021/11/23 02:53:35;;;;;;;14.90;7.97;;;;;;;12.12;70.19;101263.19;1929459;74;21451;-64
2021/11/23 02:56:04;;;;;;;8.98;5.67;;;;;;;12.15;70.36;101263.52;1929386;74;21494;-64
2021/11/23 02:58:34;;;;;;;11.05;5.40;;;;;;;12.15;70.55;101253.84;1929414;74;21004;-64
2021/11/23 03:01:07;;;;;;;12.60;5.00;;;;;;;12.13;70.41;101253.01;1929494;74;21067;-64
2021/11/23 03:03:36;;;;;;;10.95;5.70;;;;;;;12.12;70.42;101255.73;1929456;74;21036;-64
2021/11/23 03:06:04;;;;;;;13.50;6.92;;;;;;;12.12;70.72;101253.09;1929415;74;21477;-64
2021/11/23 03:08:34;;;;;;;11.05;6.33;;;;;;;12.13;70.76;101246.87;1929338;74;21122;-64
2021/11/23 03:11:03;;;;;;;12.88;5.87;;;;;;;12.14;70.74;101255.21;1929350;74;21323;-64
2021/11/23 03:13:32;;;;;;;8.05;4.72;;;;;;;12.14;70.75;101256.53;1929398;74;21491;-64
2021/11/23 03:16:01;;;;;;;14.15;7.22;;;;;;;12.12;70.78;101259.69;1927246;74;21099;-64
2021/11/23 03:18:29;;;;;;;14.53;6.67;;;;;;;12.12;70.71;101260.55;1923588;74;21095;-65
2021/11/23 03:20:58;;;;;;;11.73;5.20;;;;;;;12.10;70.94;101256.25;1923674;74;21037;-65
2021/11/23 03:23:27;;;;;;;10.93;6.28;;;;;;;12.12;70.86;101246.49;1923627;74;21117;-64
2021/11/23 03:25:55;;;;;;;11.33;5.42;;;;;;;12.13;70.92;101242.45;1923513;74;21114;-65
2021/11/23 03:28:25;;;;;;;15.43;6.33;;;;;;;12.19;70.97;101258.55;1923835;74;21056;-65
2021/11/23 03:30:54;;;;;;;14.47;6.87;;;;;;;12.23;70.72;101250.91;1923711;74;21017;-65
2021/11/23 03:33:24;;;;;;;13.48;6.15;;;;;;;12.23;70.65;101250.91;1923636;74;21040;-64
2021/11/23 03:35:55;;;;;;;9.10;4.47;;;;;;;12.27;70.69;101249.86;1923269;74;21068;-65
2021/11/23 03:38:24;;;;;;;11.65;6.70;;;;;;;12.24;70.47;101244.69;1923582;74;21016;-65
2021/11/23 03:40:54;;;;;;;11.80;5.65;;;;;;;12.22;70.76;101245.21;1923595;74;21044;-65
2021/11/23 03:43:23;;;;;;;13.80;6.45;;;;;;;12.24;70.74;101248.65;1923729;74;21036;-64
2021/11/23 03:45:52;;;;;;;19.45;9.15;;;;;;;12.26;70.79;101248.13;1923506;74;21456;-65
2021/11/23 03:48:22;;;;;;;13.18;7.75;;;;;;;12.32;71.03;101244.39;1923644;74;21044;-64
2021/11/23 03:50:51;;;;;;;15.03;5.22;;;;;;;12.39;70.90;101249.84;1923567;74;21106;-65
2021/11/23 03:53:20;;;;;;;16.10;6.70;;;;;;;12.47;70.69;101237.69;1923628;74;21161;-64
2021/11/23 03:55:50;;;;;;;16.37;8.73;;;;;;;12.49;70.44;101249.05;1923584;74;21056;-64
2021/11/23 03:58:19;;;;;;;13.45;6.78;;;;;;;12.50;70.40;101238.86;1923750;74;21118;-64
2021/11/23 04:00:48;;;;;;;17.90;7.85;;;;;;;12.51;70.34;101240.60;1923710;74;21032;-65
2021/11/23 04:03:16;;;;;;;20.20;8.10;;;;;;;12.51;70.23;101235.32;1923535;74;21103;-66
2021/11/23 04:05:45;;;;;;;18.70;8.08;;;;;;;12.53;70.15;101241.40;1923606;74;21016;-63
2021/11/23 04:08:16;;;;;;;17.52;8.00;;;;;;;12.55;69.97;101231.16;1923583;74;21012;-63
2021/11/23 04:10:45;;;;;;;12.60;7.85;;;;;;;12.59;69.79;101229.26;1923581;74;21467;-64
2021/11/23 04:13:18;;;;;;;9.80;5.50;;;;;;;12.59;69.66;101233.22;1923601;74;21198;-63
2021/11/23 04:15:46;;;;;;;15.32;8.35;;;;;;;12.60;69.55;101232.75;1923671;74;21040;-63
2021/11/23 04:18:15;;;;;;;11.90;6.37;;;;;;;12.59;69.49;101234.55;1923603;74;21087;-62
2021/11/23 04:20:44;;;;;;;22.75;8.00;;;;;;;12.59;69.45;101241.15;1923524;74;21056;-62
2021/11/23 04:23:13;;;;;;;19.17;8.58;;;;;;;12.61;69.36;101239.30;1923554;74;21068;-62
2021/11/23 04:25:42;;;;;;;19.60;8.65;;;;;;;12.63;69.36;101236.60;1923614;74;21044;-62
2021/11/23 04:28:10;;;;;;;15.98;7.70;;;;;;;12.66;69.31;101238.66;1923513;74;21151;-63
2021/11/23 04:30:41;;;;;;;16.10;9.30;;;;;;;12.69;69.21;101238.55;1923659;74;21110;-62
2021/11/23 04:33:13;;;;;;;17.07;7.83;;;;;;;12.72;69.13;101230.48;1923570;74;21038;-63
2021/11/23 04:35:43;;;;;;;21.73;10.25;;;;;;;12.75;69.07;101229.05;1923716;74;21084;-61
2021/11/23 04:38:13;;;;;;;16.37;9.43;;;;;;;12.78;69.04;101213.98;1923256;74;21061;-62
2021/11/23 04:40:41;;;;;;;15.90;8.05;;;;;;;12.82;69.06;101224.83;1923517;74;21122;-62
2021/11/23 04:43:10;;;;;;;16.40;8.73;;;;;;;12.83;69.13;101222.59;1923568;74;21028;-62
2021/11/23 04:45:39;;;;;;;20.30;7.87;;;;;;;12.86;69.03;101233.05;1923611;74;21096;-62
2021/11/23 04:48:09;;;;;;;17.67;9.65;;;;;;;12.89;69.04;101228.95;1923612;74;21530;-62
2021/11/23 04:50:38;;;;;;;19.52;10.32;;;;;;;12.91;68.99;101231.05;1923591;74;21056;-62
2021/11/23 04:53:08;;;;;;;16.65;7.65;;;;;;;12.94;68.92;101215.08;1923612;74;21036;-62
2021/11/23 04:55:37;;;;;;;14.55;8.10;;;;;;;12.98;68.79;101224.59;1923597;74;21115;-62
2021/11/23 04:58:06;;;;;;;17.48;8.40;;;;;;;13.01;68.69;101221.84;1923688;74;21114;-62
2021/11/23 05:00:35;;;;;;;10.63;5.92;;;;;;;13.03;68.61;101231.88;1923673;74;21044;-62
2021/11/23 05:03:04;;;;;;;15.95;7.33;;;;;;;13.03;68.52;101232.36;1923606;74;21037;-62
2021/11/23 05:05:35;;;;;;;23.55;10.63;;;;;;;13.02;68.43;101211.67;1923575;74;21475;-62
2021/11/23 05:08:04;;;;;;;16.65;7.70;;;;;;;13.04;68.20;101229.66;1923500;74;21111;-62
2021/11/23 05:10:34;;;;;;;20.05;10.85;;;;;;;13.07;68.02;101224.69;1923544;74;21073;-62
2021/11/23 05:13:03;;;;;;;16.05;8.88;;;;;;;13.08;67.91;101237.84;1923582;74;21129;-61
2021/11/23 05:15:31;;;;;;;18.48;9.95;;;;;;;13.10;67.83;101229.39;1923670;74;21071;-62
2021/11/23 05:18:00;;;;;;;18.73;8.55;;;;;;;13.12;67.78;101228.01;1923547;74;21084;-61
2021/11/23 05:20:31;;;;;;;19.12;8.78;;;;;;;13.16;67.71;101247.25;1923454;74;21044;-62
2021/11/23 05:23:00;;;;;;;17.23;8.88;;;;;;;13.18;67.69;101234.82;1898035;74;21139;-62
2021/11/23 05:25:28;;;;;;;19.55;9.48;;;;;;;13.20;67.79;101248.83;1923557;74;21064;-62
2021/11/23 05:27:57;;;;;;;18.98;9.85;;;;;;;13.21;67.78;101237.34;1923565;74;21025;-61
2021/11/23 05:30:26;;;;;;;16.42;9.08;;;;;;;13.23;67.78;101258.82;1923641;74;21028;-61
2021/11/23 05:32:55;;;;;;;22.48;11.48;;;;;;;13.25;67.79;101260.08;1923535;74;21036;-62
2021/11/23 05:35:24;;;;;;;21.85;9.78;;;;;;;13.25;67.87;101264.05;1923668;74;21113;-62
2021/11/23 05:37:53;;;;;;;16.62;8.18;;;;;;;13.27;67.89;101245.01;1923784;74;21056;-61
2021/11/23 05:40:22;;;;;;;24.05;9.58;;;;;;;13.28;67.98;101257.32;1923657;74;21056;-61
2021/11/23 05:42:51;;;;;;;19.57;8.45;;;;;;;13.30;67.99;101266.05;1923719;74;21129;-61
2021/11/23 05:45:20;;;;;;;21.90;12.43;;;;;;;13.31;68.07;101254.56;1923734;74;21040;-62
2021/11/23 05:47:48;;;;;;;10.20;5.50;;;;;;;13.33;68.26;101263.28;1923687;74;21064;-62
2021/11/23 05:50:17;;;;;;;19.07;8.55;;;;;;;13.35;68.25;101252.17;1923651;74;21044;-61
2021/11/23 05:52:46;;;;;;;22.82;9.40;;;;;;;13.34;68.27;101266.34;1923762;74;21032;-61
2021/11/23 05:55:15;;;;;;;25.00;11.53;;;;;;;13.35;68.38;101266.72;1923672;74;21032;-61
2021/11/23 05:57:44;;;;;;;21.57;9.63;;;;;;;13.37;68.49;101273.27;1923669;74;21130;-61
2021/11/23 06:00:13;;;;;;;20.37;9.65;;;;;;;13.37;68.45;101270.19;1923502;74;21115;-61
2021/11/23 06:02:44;;;;;;;19.37;9.33;;;;;;;13.38;68.49;101272.36;1923672;74;21032;-62
2021/11/23 06:05:12;;;;;;;17.37;8.43;;;;;;;13.40;68.64;101272.69;1923727;74;21033;-61
2021/11/23 06:07:41;;;;;;;14.43;8.35;;;;;;;13.40;68.84;101268.72;1923659;74;21108;-61
2021/11/23 06:10:10;;;;;;;25.72;13.05;;;;;;;13.43;68.82;101271.24;1923734;74;21102;-61
2021/11/23 06:12:39;;;;;;;16.32;7.90;;;;;;;13.47;68.83;101286.05;1923656;74;21118;-62
2021/11/23 06:15:10;;;;;;;21.20;9.85;;;;;;;13.48;68.86;101271.03;1923781;74;21048;-62
2021/11/23 06:17:39;;;;;;;26.20;11.08;;;;;;;13.50;68.83;101275.79;1923570;74;21044;-61
2021/11/23 06:20:09;;;;;;;28.62;10.53;;;;;;;13.52;68.80;101281.91;1923643;74;21546;-62
2021/11/23 06:22:38;;;;;;;24.80;13.08;;;;;;;13.55;68.72;101257.09;1923774;74;21040;-61
2021/11/23 06:25:08;;;;;;;24.35;10.10;;;;;;;13.55;68.65;101275.14;1923796;74;21009;-62
2021/11/23 06:27:39;;;;;;;15.05;7.65;;;;;;;13.58;68.52;101272.84;1923648;74;21036;-62
2021/11/23 06:30:09;;;;;;;21.50;10.05;;;;;;;13.61;68.46;101260.78;1923710;74;21020;-61
2021/11/23 06:32:37;;;;;;;16.55;8.15;;;;;;;13.67;68.31;101264.03;1923761;74;21028;-61
2021/11/23 06:35:07;;;;;;;23.35;11.50;;;;;;;13.76;68.04;101256.16;1923628;74;21040;-61
2021/11/23 06:37:36;;;;;;;21.07;9.83;;;;;;;13.84;67.84;101268.58;1897863;74;21048;-61
2021/11/23 06:40:06;;;;;;;21.27;10.88;;;;;;;13.93;67.73;101266.00;1923651;74;21479;-62
2021/11/23 06:42:35;;;;;;;16.32;8.63;;;;;;;13.96;67.57;101268.52;1923732;74;21021;-61
2021/11/23 06:45:09;;;;;;;18.92;9.48;;;;;;;13.97;67.30;101271.54;1923595;74;21016;-61
2021/11/23 06:47:38;;;;;;;14.30;7.42;;;;;;;13.95;67.22;101272.08;1923636;74;21012;-61
2021/11/23 06:50:08;;;;;;;21.85;9.80;;;;;;;13.90;67.22;101270.09;1923507;74;21098;-62
2021/11/23 06:52:37;;;;;;;20.20;10.60;;;;;;;13.86;67.21;101269.37;1923653;74;21036;-61
2021/11/23 06:55:06;;;;;;;21.12;10.38;;;;;;;13.84;67.21;101259.31;1923651;74;21086;-61
2021/11/23 06:57:35;;;;;;;22.42;9.95;;;;;;;13.82;67.24;101259.84;1923634;74;21456;-61
2021/11/23 07:00:06;;;;;;;24.20;10.13;;;;;;;13.82;67.28;101259.00;1923626;74;21060;-61
2021/11/23 07:02:35;;;;;;;16.55;7.42;;;;;;;13.81;67.33;101258.12;1923317;74;21040;-62
2021/11/23 07:05:04;;;;;;;21.93;10.05;;;;;;;13.81;67.44;101255.47;1923639;74;21064;-62
2021/11/23 07:07:33;;;;;;;19.37;9.00;;;;;;;13.81;67.46;101265.20;1923644;74;21080;-61
2021/11/23 07:10:06;;;;;;;21.62;9.83;;;;;;;13.81;67.54;101263.87;1898180;74;21126;-62
2021/11/23 07:12:32;;;;;;;20.65;10.13;;;;;;;13.80;67.56;101272.30;1923277;74;21150;-61
2021/11/23 07:15:01;;;;;;;20.02;8.20;;;;;;;13.79;67.62;101271.03;1923660;74;21032;-62
2021/11/23 07:17:30;;;;;;;17.55;8.63;;;;;;;13.76;67.73;101272.04;1923676;74;21103;-61
2021/11/23 07:19:59;;;;;;;21.80;10.20;;;;;;;13.77;67.74;101272.42;1923590;74;21084;-61
2021/11/23 07:22:28;;;;;;;20.05;8.90;;;;;;;13.79;67.71;101274.53;1923716;74;21033;-61
2021/11/23 07:25:03;;;;;;;27.52;11.10;;;;;;;13.79;67.69;101265.27;1923617;74;21036;-61
2021/11/23 07:27:28;;;;;;;19.17;9.08;;;;;;;13.79;67.69;101265.27;1918550;74;21041;-62
2021/11/23 07:29:57;;;;;;;17.80;9.15;;;;;;;13.83;67.65;101269.52;1923578;74;21045;-61
2021/11/23 07:32:26;;;;;;;22.30;8.95;;;;;;;13.87;67.57;101270.25;1923619;74;21126;-61
2021/11/23 07:34:55;;;;;;;16.55;7.87;;;;;;;13.90;67.50;101270.95;1923636;74;21533;-62
2021/11/23 07:37:26;;;;;;;18.05;8.68;;;;;;;13.93;67.46;101280.55;1923610;74;21487;-62
2021/11/23 07:39:54;;;;;;;22.07;10.28;;;;;;;13.93;67.43;101279.23;1923532;74;21050;-61
2021/11/23 07:42:24;;;;;;;16.02;8.30;;;;;;;13.95;67.49;101273.87;1923267;74;21547;-61
2021/11/23 07:44:54;;;;;;;23.57;10.60;;;;;;;13.97;67.45;101279.95;1923440;74;21446;-61
2021/11/23 07:47:24;;;;;;;20.27;9.90;;;;;;;13.99;67.45;101275.45;1923377;74;21071;-61
2021/11/23 07:49:53;;;;;;;19.62;9.35;;;;;;;14.03;67.44;101272.58;1923407;74;21106;-61
2021/11/23 07:52:22;;;;;;;20.23;10.80;;;;;;;14.10;67.37;101267.87;1923279;74;21007;-60
2021/11/23 07:54:50;;;;;;;22.27;11.03;;;;;;;14.23;67.20;101262.41;1923199;74;21015;-61
2021/11/23 07:57:19;;;;;;;23.05;9.45;;;;;;;14.35;66.92;101269.39;1923300;74;21003;-61
2021/11/23 07:59:48;;;;;;;17.92;8.80;;;;;;;14.51;66.68;101256.30;1923441;74;21035;-61
2021/11/23 08:02:17;;;;;;;21.10;9.68;;;;;;;14.71;66.29;101262.86;1923307;74;21140;-61
2021/11/23 08:04:45;;;;;;;15.58;7.92;;;;;;;15.01;65.91;101260.53;1923308;74;21107;-61
2021/11/23 08:07:14;;;;;;;17.98;9.95;;;;;;;15.44;64.97;101255.70;1923363;74;21043;-61
2021/11/23 08:09:44;;;;;;;16.48;8.18;;;;;;;15.99;64.17;101242.70;1923277;74;21102;-61
2021/11/23 08:12:13;;;;;;;25.00;10.15;;;;;;;16.30;62.91;101241.48;1923224;73;21098;-61
2021/11/23 08:14:42;;;;;;;17.57;8.55;;;;;;;16.30;62.44;101241.48;1923403;74;21059;-61
2021/11/23 08:17:11;;;;;;;21.02;12.45;;;;;;;16.25;62.32;101242.20;1923505;74;21478;-61
2021/11/23 08:19:39;;;;;;;27.42;11.90;;;;;;;16.13;61.68;101225.99;1923132;74;21070;-62
2021/11/23 08:22:08;;;;;;;20.85;11.33;;;;;;;16.07;62.21;101232.13;1923331;74;21080;-61
2021/11/23 08:24:37;;;;;;;22.77;12.68;;;;;;;16.07;62.56;101230.80;1923207;74;21103;-61
2021/11/23 08:27:06;;;;;;;18.82;10.58;;;;;;;16.07;62.74;101222.84;1923315;74;21050;-61
2021/11/23 08:29:34;;;;;;;19.00;10.65;;;;;;;15.96;62.43;101239.34;1923137;74;21128;-61
2021/11/23 08:32:04;;;;;;;20.30;9.40;;;;;;;15.86;62.14;101211.11;1923229;74;21078;-62
2021/11/23 08:34:33;;;;;;;15.43;7.28;;;;;;;15.70;61.98;101209.70;1923216;74;21085;-61
2021/11/23 08:37:03;;;;;;;17.15;9.15;;;;;;;15.60;62.04;101218.62;1923145;74;21078;-61
2021/11/23 08:39:32;;;;;;;17.37;8.18;;;;;;;15.56;62.25;101214.39;1923191;74;21055;-61
2021/11/23 08:42:00;;;;;;;21.37;9.78;;;;;;;15.60;62.48;101220.40;1923193;74;21070;-61
2021/11/23 08:44:29;;;;;;;9.58;5.10;;;;;;;15.55;62.25;101213.17;1923295;74;21043;-61
2021/11/23 08:46:58;;;;;;;16.42;9.05;;;;;;;15.50;62.23;101214.72;1923317;74;21137;-61
2021/11/23 08:49:26;;;;;;;17.07;9.00;;;;;;;15.42;62.29;101185.09;1923288;74;21038;-61
2021/11/23 08:51:57;;;;;;;17.15;8.88;;;;;;;15.41;62.50;101217.38;1923113;74;21034;-61
2021/11/23 08:54:26;;;;;;;19.80;9.60;;;;;;;15.49;62.56;101204.18;1923272;74;21003;-60
2021/11/23 08:57:01;;;;;;;16.00;10.43;;;;;;;15.55;62.26;101210.52;1923138;74;21035;-61
2021/11/23 08:59:31;;;;;;;20.40;9.35;;;;;;;15.56;61.76;101205.58;1922812;74;21141;-61
2021/11/23 09:01:58;;;;;;;15.68;8.73;;;;;;;15.53;62.10;101215.90;1923096;74;21043;-61
2021/11/23 09:04:29;;;;;;;18.27;9.40;;;;;;;15.59;62.05;101208.93;1923225;74;21531;-61
2021/11/23 09:07:01;;;;;;;13.00;7.97;;;;;;;15.64;61.63;101201.59;1923203;74;21019;-61
2021/11/23 09:09:30;;;;;;;20.80;9.10;;;;;;;15.69;61.79;101205.31;1923359;74;21161;-61
2021/11/23 09:12:02;;;;;;;13.93;7.25;;;;;;;15.72;61.32;101199.84;1923003;74;21615;-61
2021/11/23 09:14:31;;;;;;;21.15;12.88;;;;;;;15.65;61.23;101206.42;1923246;74;21093;-61
2021/11/23 09:17:02;;;;;;;13.22;5.67;;;;;;;15.54;60.32;101179.11;1923162;74;21043;-61
2021/11/23 09:19:30;;;;;;;18.73;7.95;;;;;;;15.43;60.82;101207.53;1923450;74;21043;-61
2021/11/23 09:21:59;;;;;;;14.55;7.62;;;;;;;15.43;61.01;101191.61;1926668;74;21034;-61
2021/11/23 09:24:28;;;;;;;15.28;7.78;;;;;;;15.42;60.99;101184.61;1926593;74;21035;-61
2021/11/23 09:26:57;;;;;;;18.75;9.55;;;;;;;15.49;60.98;101196.22;1926641;74;21097;-61
2021/11/23 09:29:26;;;;;;;13.00;7.87;;;;;;;15.46;60.68;101200.38;1926641;74;21090;-61
2021/11/23 09:31:56;;;;;;;16.65;9.65;;;;;;;15.42;61.01;101198.35;1926659;74;21097;-61
2021/11/23 09:34:26;;;;;;;16.48;9.00;;;;;;;15.39;61.14;101190.55;1926770;74;21042;-61
2021/11/23 09:36:56;;;;;;;15.15;8.35;;;;;;;15.37;61.39;101193.27;1926622;74;21034;-61
2021/11/23 09:39:25;;;;;;;17.23;7.78;;;;;;;15.33;61.45;101193.05;1926625;74;21609;-61
2021/11/23 09:41:54;;;;;;;15.68;8.50;;;;;;;15.30;61.45;101186.56;1926794;74;21078;-61
2021/11/23 09:44:23;;;;;;;15.72;9.23;;;;;;;15.30;61.61;101180.41;1926730;74;21047;-61
2021/11/23 09:46:52;;;;;;;17.05;8.68;;;;;;;15.29;61.64;101191.50;1926649;74;21019;-61
2021/11/23 09:49:21;;;;;;;20.02;10.43;;;;;;;15.28;61.66;101183.13;1926564;74;21027;-61
2021/11/23 09:51:50;;;;;;;27.75;8.05;;;;;;;15.28;61.78;101183.13;1926687;74;21015;-61
2021/11/23 09:54:19;;;;;;;25.02;9.70;;;;;;;15.28;61.84;101179.16;1926735;74;21007;-61
2021/11/23 09:56:48;;;;;;;18.17;9.25;;;;;;;15.27;61.88;101186.74;1926607;74;21093;-61
2021/11/23 09:59:17;;;;;;;17.85;8.75;;;;;;;15.25;61.88;101187.27;1926611;74;21427;-60
2021/11/23 10:01:52;;;;;;;9.00;5.33;;;;;;;15.23;61.99;101170.56;1926512;74;21030;-63
2021/11/23 10:04:23;;;;;;;18.37;9.23;;;;;;;15.24;62.02;101173.63;1926639;74;21450;-59
2021/11/23 10:07:04;;;;;;;20.20;9.30;;;;;;;15.23;62.06;101175.43;1926610;74;21035;-62
2021/11/23 10:09:40;;;;;;;21.02;10.63;;;;;;;15.28;62.06;101163.23;1926614;74;21055;-60
2021/11/23 10:12:15;;;;;;;20.85;10.68;;;;;;;15.33;62.03;101164.34;1926556;74;21034;-62
2021/11/23 10:15:03;;;;;;;16.70;9.33;;;;;;;15.39;61.98;101171.97;1926745;74;21051;-61
2021/11/23 10:17:32;;;;;;;18.92;10.23;;;;;;;15.42;61.88;101166.03;1926587;74;21066;-61
2021/11/23 10:20:01;;;;;;;24.60;11.18;;;;;;;15.48;61.71;101167.98;1926746;74;21496;-61
2021/11/23 10:22:35;;;;;;;21.65;9.78;;;;;;;15.53;61.66;101165.92;1932194;74;21042;-61
2021/11/23 10:25:07;;;;;;;15.78;10.32;;;;;;;15.58;61.63;101159.91;1932231;74;21082;-62
2021/11/23 10:27:43;;;;;;;18.57;9.95;;;;;;;15.60;61.35;101164.66;1932239;74;21034;-61
2021/11/23 10:30:13;;;;;;;19.45;10.25;;;;;;;15.61;61.29;101169.04;1932252;74;21500;-61
2021/11/23 10:32:52;;;;;;;17.37;9.03;;;;;;;15.57;61.17;101152.90;1932169;74;21108;-61
2021/11/23 10:35:23;;;;;;;18.10;9.98;;;;;;;15.59;61.29;101162.96;1932122;74;21037;-61
2021/11/23 10:37:53;;;;;;;18.80;10.08;;;;;;;15.60;61.32;101160.67;1932272;74;21027;-61
2021/11/23 10:40:28;;;;;;;16.60;9.43;;;;;;;15.60;61.16;101156.69;1932367;74;21453;-61
2021/11/23 10:43:04;;;;;;;20.60;9.45;;;;;;;15.55;61.27;101160.94;1932325;74;21062;-61
2021/11/23 10:45:39;;;;;;;20.52;10.50;;;;;;;15.51;61.33;101150.55;1932164;74;21513;-61
2021/11/23 10:48:09;;;;;;;21.70;10.98;;;;;;;15.42;61.36;101143.48;1932287;74;21046;-61
2021/11/23 10:50:39;;;;;;;17.98;8.15;;;;;;;15.27;61.38;101144.30;1932316;74;21035;-61
2021/11/23 10:53:16;;;;;;;18.52;8.95;;;;;;;15.16;61.54;101138.66;1932185;74;21529;-61
2021/11/23 10:55:44;;;;;;;20.48;9.78;;;;;;;15.12;61.76;101150.38;1931495;74;21050;-61
2021/11/23 10:58:13;;;;;;;16.55;9.75;;;;;;;15.14;61.90;101147.17;1932004;74;21096;-61
2021/11/23 11:00:45;;;;;;;17.85;9.55;;;;;;;15.14;61.92;101146.73;1932185;74;21485;-61
2021/11/23 11:03:16;;;;;;;21.33;10.48;;;;;;;15.18;61.99;101150.05;1932183;74;21129;-61
2021/11/23 11:05:45;;;;;;;20.35;10.30;;;;;;;15.19;62.02;101147.32;1932311;74;21030;-61
2021/11/23 11:08:15;;;;;;;23.73;11.80;;;;;;;15.21;62.06;101141.94;1932218;74;21124;-61
2021/11/23 11:10:43;;;;;;;23.15;10.72;;;;;;;15.22;62.10;101146.32;1932161;74;21030;-61
2021/11/23 11:13:15;;;;;;;16.73;10.63;;;;;;;15.19;62.18;101149.13;1932186;74;21063;-61
2021/11/23 11:15:52;;;;;;;19.50;10.88;;;;;;;15.18;62.27;101148.72;1932106;73;21042;-61
2021/11/23 11:18:22;;;;;;;16.67;9.33;;;;;;;15.20;62.29;101132.28;1932209;74;21128;-61
2021/11/23 11:20:54;;;;;;;21.02;11.03;;;;;;;15.21;62.27;101138.81;1931847;74;21038;-61
2021/11/23 11:23:25;;;;;;;17.05;9.40;;;;;;;15.24;62.31;101133.83;1922478;72;21113;-61
2021/11/23 11:26:17;;;;;;;24.07;11.70;;;;;;;15.21;62.22;101132.66;1923226;74;21117;-61
2021/11/23 11:28:49;;;;;;;19.05;10.82;;;;;;;15.20;62.27;101142.89;1922671;73;21108;-60
2021/11/23 11:31:39;;;;;;;18.20;10.28;;;;;;;15.19;62.23;101136.71;1923192;74;21043;-61
2021/11/23 11:34:16;;;;;;;15.68;9.40;;;;;;;15.15;62.27;101138.29;1923379;74;21051;-61